createdAt,value
2018-02-14T00:02:27.883Z,9.83
2018-02-14T00:04:56.073Z,13.23
2018-02-14T00:07:24.968Z,10.37
2018-02-14T00:09:53.721Z,10.30
2018-02-14T00:12:21.726Z,10.40
2018-02-14T00:14:50.640Z,11.80
2018-02-14T00:17:18.650Z,10.33
2018-02-14T00:19:46.686Z,11.60
2018-02-14T00:22:14.911Z,8.90
2018-02-14T00:24:42.940Z,11.30
2018-02-14T00:27:10.977Z,10.50
2018-02-14T00:29:39.110Z,10.60
2018-02-14T00:32:07.165Z,11.50
2018-02-14T00:34:35.176Z,10.90
2018-02-14T00:37:03.306Z,11.70
2018-02-14T00:39:31.335Z,11.00
2018-02-14T00:41:59.485Z,10.07
2018-02-14T00:44:27.617Z,10.30
2018-02-14T00:46:55.644Z,10.00
2018-02-14T00:49:23.654Z,10.30
2018-02-14T00:51:52.609Z,10.10
2018-02-14T00:54:20.622Z,11.30
2018-02-14T00:56:49.356Z,11.70
2018-02-14T00:59:17.515Z,10.67
2018-02-14T01:01:45.569Z,11.73
2018-02-14T01:04:13.606Z,10.90
2018-02-14T01:06:42.477Z,10.20
2018-02-14T01:09:10.510Z,11.70
2018-02-14T01:11:38.618Z,11.37
2018-02-14T01:14:07.525Z,10.27
2018-02-14T01:16:35.535Z,10.77
2018-02-14T01:19:09.316Z,10.30
2018-02-14T01:21:38.275Z,10.83
2018-02-14T01:24:06.324Z,10.07
2018-02-14T01:26:34.500Z,10.30
2018-02-14T01:29:02.533Z,10.43
2018-02-14T01:31:31.352Z,12.53
2018-02-14T01:33:59.460Z,11.10
2018-02-14T01:36:27.470Z,10.80
2018-02-14T01:38:56.376Z,11.20
2018-02-14T01:41:25.272Z,12.77
2018-02-14T01:43:53.277Z,11.83
2018-02-14T01:46:21.272Z,12.63
2018-02-14T01:48:49.445Z,13.17
2018-02-14T01:51:17.572Z,13.30
2018-02-14T01:53:45.740Z,12.73
2018-02-14T01:56:13.906Z,13.93
2018-02-14T01:58:42.675Z,14.47
2018-02-14T02:01:10.690Z,15.47
2018-02-14T02:03:38.861Z,14.33
2018-02-14T02:06:06.938Z,16.37
2018-02-14T02:08:34.982Z,16.20
2018-02-14T02:11:03.846Z,15.57
2018-02-14T02:13:31.946Z,16.90
2018-02-14T02:16:00.715Z,18.20
2018-02-14T02:18:29.038Z,17.93
2018-02-14T02:20:57.038Z,19.97
2018-02-14T02:23:25.118Z,17.63
2018-02-14T02:25:53.250Z,19.87
2018-02-14T02:28:21.265Z,19.13
2018-02-14T02:30:50.250Z,19.97
2018-02-14T02:33:18.402Z,19.03
2018-02-14T02:35:46.404Z,19.00
2018-02-14T02:38:14.436Z,18.30
2018-02-14T02:40:42.711Z,18.77
2018-02-14T02:43:10.762Z,20.33
2018-02-14T02:45:38.764Z,17.40
2018-02-14T02:48:06.899Z,19.53
2018-02-14T02:50:35.649Z,21.23
2018-02-14T02:53:03.686Z,18.87
2018-02-14T02:55:31.957Z,18.53
2018-02-14T02:58:00.705Z,19.73
2018-02-14T03:00:28.714Z,16.03
2018-02-14T03:02:56.902Z,17.70
2018-02-14T03:05:24.948Z,18.90
2018-02-14T03:07:53.691Z,18.83
2018-02-14T03:10:21.836Z,18.70
2018-02-14T03:12:49.859Z,17.63
2018-02-14T03:15:17.977Z,21.40
2018-02-14T03:17:46.135Z,17.07
2018-02-14T03:20:14.938Z,18.03
2018-02-14T03:22:43.675Z,19.57
2018-02-14T03:25:11.784Z,17.93
2018-02-14T03:27:40.554Z,18.70
2018-02-14T03:30:08.732Z,17.30
2018-02-14T03:32:36.853Z,16.73
2018-02-14T03:35:04.894Z,18.93
2018-02-14T03:37:33.600Z,17.33
2018-02-14T03:40:03.040Z,16.30
2018-02-14T03:42:32.042Z,18.87
2018-02-14T03:45:00.048Z,17.30
2018-02-14T03:47:28.914Z,14.70
2018-02-14T03:49:56.922Z,17.53
2018-02-14T03:55:17.323Z,18.10
2018-02-14T03:57:46.254Z,16.97
2018-02-14T04:00:14.317Z,17.80
2018-02-14T04:02:42.343Z,15.07
2018-02-14T04:05:10.666Z,16.70
2018-02-14T04:07:38.701Z,18.00
2018-02-14T04:10:06.719Z,18.00
2018-02-14T04:12:34.903Z,17.27
2018-02-14T04:15:02.953Z,18.40
2018-02-14T04:17:31.734Z,16.60
2018-02-14T04:20:00.650Z,17.60
2018-02-14T04:22:28.650Z,16.37
2018-02-14T04:24:56.850Z,17.13
2018-02-14T04:27:25.017Z,16.67
2018-02-14T04:29:53.028Z,16.87
2018-02-14T04:32:21.768Z,16.40
2018-02-14T04:34:49.941Z,17.90
2018-02-14T04:37:17.982Z,18.07
2018-02-14T04:39:46.030Z,16.77
2018-02-14T04:42:14.998Z,15.13
2018-02-14T04:44:43.010Z,17.60
2018-02-14T04:47:11.008Z,17.13
2018-02-14T04:49:39.170Z,15.73
2018-02-14T04:52:07.248Z,15.20
2018-02-14T04:54:35.280Z,15.60
2018-02-14T04:57:04.202Z,17.60
2018-02-14T04:59:32.380Z,17.90
2018-02-14T05:02:00.468Z,18.30
2018-02-14T05:04:28.622Z,17.50
2018-02-14T05:06:56.646Z,18.17
2018-02-14T05:09:24.681Z,17.93
2018-02-14T05:11:52.884Z,19.43
2018-02-14T05:14:20.881Z,19.03
2018-02-14T05:16:49.654Z,23.10
2018-02-14T05:19:17.817Z,25.60
2018-02-14T05:21:45.864Z,23.33
2018-02-14T05:24:13.866Z,26.90
2018-02-14T05:26:42.020Z,27.10
2018-02-14T05:29:10.855Z,27.17
2018-02-14T05:31:39.670Z,28.03
2018-02-14T05:34:07.834Z,27.40
2018-02-14T05:36:36.657Z,27.80
2018-02-14T05:39:04.974Z,27.30
2018-02-14T05:41:33.254Z,28.10
2018-02-14T05:44:01.259Z,30.53
2018-02-14T05:46:29.298Z,29.17
2018-02-14T05:48:57.476Z,30.80
2018-02-14T05:51:25.614Z,30.23
2018-02-14T05:53:53.626Z,32.40
2018-02-14T05:56:22.518Z,31.90
2018-02-14T05:58:51.301Z,36.70
2018-02-14T06:01:19.525Z,34.20
2018-02-14T06:03:47.694Z,32.77
2018-02-14T06:06:15.709Z,36.00
2018-02-14T06:08:43.772Z,36.87
2018-02-14T06:11:11.938Z,35.53
2018-02-14T06:13:39.928Z,39.73
2018-02-14T06:16:07.984Z,45.77
2018-02-14T06:18:36.125Z,41.77
2018-02-14T06:21:04.155Z,39.37
2018-02-14T06:23:32.192Z,39.93
2018-02-14T06:26:00.356Z,42.83
2018-02-14T06:28:28.432Z,44.57
2018-02-14T06:30:56.489Z,42.37
2018-02-14T06:33:24.659Z,37.77
2018-02-14T06:35:52.697Z,41.30
2018-02-14T06:38:20.698Z,46.10
2018-02-14T06:40:49.618Z,43.10
2018-02-14T06:43:17.700Z,42.30
2018-02-14T06:45:45.723Z,43.07
2018-02-14T06:48:14.633Z,44.10
2018-02-14T06:50:43.024Z,38.57
2018-02-14T06:53:11.382Z,42.90
2018-02-14T06:55:40.228Z,42.90
2018-02-14T06:58:08.224Z,40.67
2018-02-14T07:00:37.993Z,43.30
2018-02-14T07:03:07.121Z,36.77
2018-02-14T07:05:38.481Z,40.17
2018-02-14T07:08:06.684Z,37.37
2018-02-14T07:10:34.860Z,38.00
2018-02-14T07:13:03.901Z,38.60
2018-02-14T07:15:31.882Z,44.17
2018-02-14T07:18:01.663Z,36.63
2018-02-14T07:20:29.701Z,39.47
2018-02-14T07:22:58.472Z,39.67
2018-02-14T07:25:26.627Z,36.77
2018-02-14T07:27:54.641Z,42.40
2018-02-14T07:30:23.398Z,36.73
2018-02-14T07:32:51.661Z,37.23
2018-02-14T07:35:19.707Z,34.87
2018-02-14T07:37:47.748Z,39.23
2018-02-14T07:40:16.640Z,35.40
2018-02-14T07:42:45.418Z,38.00
2018-02-14T07:45:14.166Z,35.40
2018-02-14T07:47:42.303Z,36.73
2018-02-14T07:50:10.344Z,40.73
2018-02-14T07:52:38.380Z,36.23
2018-02-14T07:55:06.499Z,36.90
2018-02-14T07:57:35.287Z,34.40
2018-02-14T08:00:04.210Z,32.40
2018-02-14T08:02:32.380Z,31.50
2018-02-14T08:05:04.929Z,35.87
2018-02-14T08:07:33.192Z,34.67
2018-02-14T08:10:03.252Z,35.90
2018-02-14T08:12:32.201Z,35.80
2018-02-14T08:15:00.272Z,34.97
2018-02-14T08:17:28.500Z,36.17
2018-02-14T08:19:56.908Z,35.60
2018-02-14T08:22:27.008Z,34.10
2018-02-14T08:24:55.835Z,36.47
2018-02-14T08:27:23.904Z,29.30
2018-02-14T08:29:52.070Z,33.50
2018-02-14T08:32:20.064Z,32.13
2018-02-14T08:34:49.525Z,30.17
2018-02-14T08:37:20.824Z,32.97
2018-02-14T08:39:51.285Z,31.80
2018-02-14T08:42:19.610Z,31.03
2018-02-14T08:44:47.750Z,30.80
2018-02-14T08:47:15.752Z,25.70
2018-02-14T08:49:43.749Z,27.47
2018-02-14T08:52:12.066Z,27.03
2018-02-14T08:54:40.122Z,25.67
2018-02-14T08:57:08.888Z,25.80
2018-02-14T08:59:37.048Z,24.97
2018-02-14T09:02:05.168Z,25.10
2018-02-14T09:04:33.367Z,27.57
2018-02-14T09:07:01.624Z,24.37
2018-02-14T09:09:29.623Z,24.80
2018-02-14T09:11:57.880Z,25.20
2018-02-14T09:14:26.179Z,27.23
2018-02-14T09:16:54.169Z,26.60
2018-02-14T09:19:22.189Z,23.93
2018-02-14T09:21:51.138Z,25.70
2018-02-14T09:24:19.182Z,26.20
2018-02-14T09:26:47.176Z,23.93
2018-02-14T09:29:15.337Z,24.73
2018-02-14T09:31:43.373Z,26.70
2018-02-14T09:34:11.404Z,26.33
2018-02-14T09:36:39.563Z,24.27
2018-02-14T09:39:07.821Z,24.70
2018-02-14T09:41:35.880Z,22.17
2018-02-14T09:44:04.022Z,22.67
2018-02-14T09:46:32.940Z,23.17
2018-02-14T09:49:01.115Z,24.70
2018-02-14T09:51:29.353Z,23.97
2018-02-14T09:53:57.367Z,22.40
2018-02-14T09:56:28.053Z,21.67
2018-02-14T09:58:56.319Z,23.53
2018-02-14T10:01:25.961Z,25.17
2018-02-14T10:03:54.224Z,26.27
2018-02-14T10:06:22.368Z,21.90
2018-02-14T10:08:50.396Z,24.70
2018-02-14T10:11:19.158Z,24.03
2018-02-14T10:13:47.458Z,21.90
2018-02-14T10:16:16.231Z,21.23
2018-02-14T10:18:44.303Z,23.40
2018-02-14T10:21:13.566Z,24.07
2018-02-14T10:23:41.618Z,22.93
2018-02-14T10:26:09.620Z,22.43
2018-02-14T10:28:37.867Z,22.80
2018-02-14T10:31:05.981Z,21.47
2018-02-14T10:33:33.985Z,22.07
2018-02-14T10:36:02.895Z,24.17
2018-02-14T10:38:30.905Z,22.30
2018-02-14T10:40:59.116Z,21.80
2018-02-14T10:43:28.109Z,23.53
2018-02-14T10:45:57.022Z,20.70
2018-02-14T10:48:25.778Z,21.90
2018-02-14T10:50:53.978Z,21.60
2018-02-14T10:53:22.761Z,21.63
2018-02-14T10:55:51.527Z,20.20
2018-02-14T11:11:10.391Z,32.50
2018-02-14T11:13:38.397Z,30.47
2018-02-14T11:16:06.424Z,28.00
2018-02-14T11:18:34.614Z,29.07
2018-02-14T11:21:03.359Z,27.67
2018-02-14T11:23:31.370Z,27.80
2018-02-14T11:25:59.550Z,27.40
2018-02-14T11:28:28.314Z,27.67
2018-02-14T11:30:56.349Z,27.07
2018-02-14T11:33:24.504Z,28.33
2018-02-14T11:35:53.258Z,28.17
2018-02-14T11:38:21.390Z,28.90
2018-02-14T11:40:49.698Z,27.60
2018-02-14T11:43:17.691Z,26.90
2018-02-14T11:45:45.734Z,27.43
2018-02-14T11:48:13.856Z,27.73
2018-02-14T11:50:42.641Z,27.60
2018-02-14T11:53:11.422Z,26.63
2018-02-14T11:55:40.338Z,27.10
2018-02-14T11:58:09.366Z,26.40
2018-02-14T12:00:38.124Z,27.37
2018-02-14T12:03:06.290Z,26.87
2018-02-14T12:05:35.228Z,28.03
2018-02-14T12:08:03.240Z,27.27
2018-02-14T12:10:32.109Z,28.33
2018-02-14T12:13:00.242Z,25.70
2018-02-14T12:15:28.254Z,26.90
2018-02-14T12:17:56.380Z,27.67
2018-02-14T12:20:24.422Z,26.87
2018-02-14T12:22:53.307Z,28.70
2018-02-14T12:25:22.984Z,27.40
2018-02-14T12:27:51.376Z,27.40
2018-02-14T12:30:21.130Z,27.70
2018-02-14T12:32:49.992Z,26.80
2018-02-14T12:35:18.034Z,27.73
2018-02-14T12:37:46.050Z,28.53
2018-02-14T12:40:14.945Z,28.57
2018-02-14T12:42:43.721Z,26.83
2018-02-14T12:45:11.728Z,28.20
2018-02-14T12:47:39.877Z,28.00
2018-02-14T12:50:08.624Z,28.67
2018-02-14T12:52:36.662Z,27.27
2018-02-14T12:55:04.817Z,27.33
2018-02-14T12:57:33.604Z,27.93
2018-02-14T13:00:02.534Z,27.50
2018-02-14T13:02:30.717Z,27.33
2018-02-14T13:04:58.726Z,26.50
2018-02-14T13:07:26.766Z,28.33
2018-02-14T13:09:54.906Z,26.87
2018-02-14T13:12:23.706Z,26.73
2018-02-14T13:14:51.852Z,27.07
2018-02-14T13:17:20.773Z,27.20
2018-02-14T13:19:48.983Z,26.87
2018-02-14T13:22:17.022Z,26.60
2018-02-14T13:24:45.140Z,29.63
2018-02-14T13:27:13.238Z,27.50
2018-02-14T13:29:41.428Z,26.63
2018-02-14T13:32:10.404Z,27.03
2018-02-14T13:34:38.479Z,26.67
2018-02-14T13:37:07.223Z,26.83
2018-02-14T13:39:35.386Z,27.30
2018-02-14T13:42:03.592Z,28.10
2018-02-14T13:44:31.634Z,27.17
2018-02-14T13:46:59.848Z,30.97
2018-02-14T13:49:27.877Z,28.50
2018-02-14T13:51:55.977Z,27.57
2018-02-14T13:54:24.097Z,28.30
2018-02-14T13:56:52.844Z,26.27
2018-02-14T13:59:20.913Z,24.70
2018-02-14T14:01:49.036Z,26.47
2018-02-14T14:04:17.967Z,24.77
2018-02-14T14:06:46.265Z,24.57
2018-02-14T14:09:14.676Z,26.03
2018-02-14T14:11:42.813Z,25.00
2018-02-14T14:14:10.840Z,25.20
2018-02-14T14:16:40.011Z,25.27
2018-02-14T14:19:09.182Z,26.53
2018-02-14T14:21:39.037Z,28.13
2018-02-14T14:24:07.923Z,25.93
2018-02-14T14:26:36.247Z,25.37
2018-02-14T14:29:04.390Z,25.77
2018-02-14T14:31:33.353Z,25.93
2018-02-14T14:34:01.380Z,27.93
2018-02-14T14:36:29.430Z,25.80
2018-02-14T14:38:58.300Z,25.57
2018-02-14T14:41:26.346Z,26.03
2018-02-14T14:43:54.368Z,26.83
2018-02-14T14:46:23.244Z,28.53
2018-02-14T14:48:51.998Z,27.43
2018-02-14T14:51:20.570Z,26.30
2018-02-14T14:53:49.168Z,27.40
2018-02-14T14:56:20.769Z,26.30
2018-02-14T14:58:49.402Z,26.50
2018-02-14T15:01:17.445Z,25.77
2018-02-14T15:03:45.476Z,26.83
2018-02-14T15:06:18.421Z,26.83
2018-02-14T15:08:46.668Z,26.47
2018-02-14T15:11:15.518Z,26.70
2018-02-14T15:13:43.683Z,27.40
2018-02-14T15:16:11.712Z,26.70
2018-02-14T15:18:39.862Z,26.90
2018-02-14T15:21:09.165Z,26.37
2018-02-14T15:23:38.026Z,27.80
2018-02-14T15:26:06.028Z,28.10
2018-02-14T15:28:34.936Z,27.70
2018-02-14T15:31:03.746Z,27.60
2018-02-14T15:33:31.762Z,25.13
2018-02-14T15:35:59.935Z,26.17
2018-02-14T15:38:27.966Z,25.67
2018-02-14T15:40:56.096Z,25.80
2018-02-14T15:43:24.264Z,26.03
2018-02-14T15:45:53.014Z,25.90
2018-02-14T15:48:21.190Z,25.63
2018-02-14T15:50:49.895Z,25.37
2018-02-14T15:53:20.064Z,27.60
2018-02-14T15:55:49.372Z,26.27
2018-02-14T15:58:18.748Z,24.83
2018-02-14T16:00:48.268Z,25.30
2018-02-14T16:03:18.203Z,26.50
2018-02-14T16:05:46.341Z,24.53
2018-02-14T16:08:15.720Z,27.27
2018-02-14T16:10:43.893Z,25.63
2018-02-14T16:13:12.028Z,26.20
2018-02-14T16:15:40.568Z,25.03
2018-02-14T16:18:09.514Z,25.27
2018-02-14T16:20:38.235Z,26.00
2018-02-14T16:23:06.882Z,25.67
2018-02-14T16:25:34.909Z,27.77
2018-02-14T16:28:03.065Z,26.33
2018-02-14T16:30:33.473Z,25.97
2018-02-14T16:33:02.005Z,26.30
2018-02-14T16:35:30.344Z,26.00
2018-02-14T16:37:58.350Z,25.93
2018-02-14T16:40:26.773Z,28.00
2018-02-14T16:42:55.868Z,26.30
2018-02-14T16:45:24.679Z,27.90
2018-02-14T16:47:53.425Z,28.43
2018-02-14T16:50:22.323Z,30.70
2018-02-14T16:52:53.413Z,29.47
2018-02-14T16:55:22.442Z,28.20
2018-02-14T16:57:52.646Z,29.70
2018-02-14T17:00:22.930Z,30.73
2018-02-14T17:02:51.124Z,30.37
2018-02-14T17:05:21.021Z,29.80
2018-02-14T17:07:49.160Z,28.20
2018-02-14T17:10:18.321Z,29.57
2018-02-14T17:12:47.631Z,28.03
2018-02-14T17:15:16.896Z,28.33
2018-02-14T17:17:48.115Z,29.13
2018-02-14T17:20:17.384Z,29.50
2018-02-14T17:22:47.972Z,28.07
2018-02-14T17:25:17.734Z,30.30
2018-02-14T17:27:47.077Z,30.57
2018-02-14T17:30:16.929Z,28.07
2018-02-14T17:32:45.390Z,29.93
2018-02-14T17:35:14.661Z,30.17
2018-02-14T17:37:43.589Z,28.00
2018-02-14T17:40:12.025Z,29.80
2018-02-14T17:42:45.285Z,29.13
2018-02-14T17:45:13.865Z,29.40
2018-02-14T17:47:43.092Z,28.87
2018-02-14T17:50:12.562Z,28.80
2018-02-14T17:52:41.807Z,28.50
2018-02-14T17:55:11.222Z,29.87
2018-02-14T17:57:40.245Z,27.30
2018-02-14T18:00:09.011Z,29.00
2018-02-14T18:02:38.433Z,29.40
2018-02-14T18:05:09.773Z,28.10
2018-02-14T18:07:38.030Z,27.83
2018-02-14T18:10:06.825Z,29.13
2018-02-14T18:12:35.716Z,29.67
2018-02-14T18:15:04.668Z,28.33
2018-02-14T18:17:37.095Z,29.77
2018-02-14T18:20:10.702Z,28.63
2018-02-14T18:22:39.030Z,27.87
2018-02-14T18:25:07.588Z,29.40
2018-02-14T18:27:36.198Z,29.13
2018-02-14T18:30:04.326Z,28.80
2018-02-14T18:32:33.478Z,28.13
2018-02-14T18:35:01.784Z,29.03
2018-02-14T18:37:31.118Z,28.63
2018-02-14T18:39:59.360Z,28.97
2018-02-14T18:42:28.159Z,29.30
2018-02-14T18:44:56.332Z,28.87
2018-02-14T18:47:25.312Z,29.40
2018-02-14T18:49:53.654Z,27.20
2018-02-14T18:52:23.225Z,28.27
2018-02-14T18:54:52.585Z,29.37
2018-02-14T18:57:20.865Z,28.63
2018-02-14T18:59:48.889Z,28.90
2018-02-14T19:02:17.391Z,28.33
2018-02-14T19:04:46.606Z,28.80
2018-02-14T19:07:15.313Z,29.13
2018-02-14T19:09:44.054Z,28.77
2018-02-14T19:12:12.876Z,30.13
2018-02-14T19:14:42.700Z,29.00
2018-02-14T19:17:11.276Z,28.87
2018-02-14T19:19:40.002Z,29.50
2018-02-14T19:22:09.222Z,28.40
2018-02-14T19:24:37.658Z,31.13
2018-02-14T19:27:05.941Z,28.70
2018-02-14T19:29:34.853Z,29.10
2018-02-14T19:32:03.439Z,30.20
2018-02-14T19:34:31.754Z,30.43
2018-02-14T19:37:00.377Z,29.90
2018-02-14T19:39:29.152Z,30.60
2018-02-14T19:41:57.518Z,28.30
2018-02-14T19:44:26.147Z,29.10
2018-02-14T19:46:55.697Z,29.93
2018-02-14T19:49:23.824Z,30.50
2018-02-14T19:51:52.701Z,29.03
2018-02-14T19:54:20.871Z,28.97
2018-02-14T19:56:49.538Z,29.97
2018-02-14T19:59:18.114Z,27.03
2018-02-14T20:01:46.346Z,31.13
2018-02-14T20:04:15.258Z,29.67
2018-02-14T20:06:43.607Z,28.30
2018-02-14T20:09:12.040Z,27.97
2018-02-14T20:11:41.053Z,28.77
2018-02-14T20:14:09.270Z,30.47
2018-02-14T20:16:37.418Z,29.50
2018-02-14T20:19:05.559Z,28.93
2018-02-14T20:21:34.162Z,28.47
2018-02-14T20:24:02.198Z,27.17
2018-02-14T20:26:30.949Z,27.30
2018-02-14T20:28:59.400Z,29.00
2018-02-14T20:31:27.463Z,28.90
2018-02-14T20:33:55.762Z,27.80
2018-02-14T20:36:24.296Z,29.43
2018-02-14T20:38:52.417Z,28.17
2018-02-14T20:41:21.454Z,27.97
2018-02-14T20:43:50.955Z,28.00
2018-02-14T20:46:20.278Z,30.40
2018-02-14T20:48:48.940Z,28.37
2018-02-14T20:51:19.003Z,30.53
2018-02-14T20:53:47.050Z,30.50
2018-02-14T20:56:15.944Z,28.73
2018-02-14T20:58:44.734Z,29.67
2018-02-14T21:01:13.916Z,29.40
2018-02-14T21:03:42.188Z,29.50
2018-02-14T21:06:11.798Z,30.30
2018-02-14T21:08:40.150Z,29.63
2018-02-14T21:11:09.462Z,30.90
2018-02-14T21:13:38.166Z,29.47
2018-02-14T21:16:06.758Z,30.33
2018-02-14T21:18:37.203Z,28.83
2018-02-14T21:21:06.142Z,29.87
2018-02-14T21:23:34.198Z,29.07
2018-02-14T21:26:02.933Z,28.87
2018-02-14T21:28:31.136Z,29.67
2018-02-14T21:31:00.360Z,29.50
2018-02-14T21:33:28.612Z,30.57
2018-02-14T21:35:56.736Z,30.57
2018-02-14T21:38:25.807Z,27.63
2018-02-14T21:40:55.210Z,29.70
2018-02-14T21:43:23.289Z,29.27
2018-02-14T21:45:52.820Z,28.83
2018-02-14T21:48:21.593Z,28.87
2018-02-14T21:50:51.222Z,27.83
2018-02-14T21:53:20.839Z,29.43
2018-02-14T21:55:49.016Z,27.47
2018-02-14T21:58:17.051Z,29.00
2018-02-14T22:00:45.138Z,29.37
2018-02-14T22:03:14.771Z,29.10
2018-02-14T22:05:43.444Z,29.90
2018-02-14T22:08:12.390Z,29.00
2018-02-14T22:10:42.088Z,28.90
2018-02-14T22:13:12.662Z,27.67
2018-02-14T22:15:40.655Z,27.10
2018-02-14T22:18:09.280Z,28.00
2018-02-14T22:20:37.449Z,27.87
2018-02-14T22:23:06.378Z,27.07
2018-02-14T22:25:34.404Z,29.30
2018-02-14T22:28:04.683Z,29.13
2018-02-14T22:30:33.272Z,30.20
2018-02-14T22:33:01.991Z,28.77
2018-02-14T22:35:30.600Z,30.20
2018-02-14T22:38:00.944Z,28.20
2018-02-14T22:40:29.780Z,28.97
2018-02-14T22:42:58.354Z,28.93
2018-02-14T22:45:26.792Z,29.93
2018-02-14T22:47:55.108Z,30.73
2018-02-14T22:50:24.005Z,32.80
2018-02-14T22:52:52.450Z,31.90
2018-02-14T22:55:21.116Z,30.50
2018-02-14T22:57:50.290Z,31.83
2018-02-14T23:00:22.529Z,33.47
2018-02-14T23:02:50.705Z,32.00
2018-02-14T23:05:19.108Z,31.43
2018-02-14T23:07:48.517Z,33.33
2018-02-14T23:10:17.153Z,32.30
2018-02-14T23:12:45.166Z,31.67
2018-02-14T23:15:14.886Z,30.27
2018-02-14T23:17:43.280Z,35.70
2018-02-14T23:20:12.625Z,32.10
2018-02-14T23:22:40.809Z,31.70
2018-02-14T23:25:08.816Z,32.90
2018-02-14T23:27:37.028Z,31.90
2018-02-14T23:30:05.493Z,32.80
2018-02-14T23:32:34.292Z,31.80
2018-02-14T23:35:02.870Z,33.37
2018-02-14T23:37:31.961Z,31.33
2018-02-14T23:40:00.321Z,32.23
2018-02-14T23:42:29.263Z,31.77
2018-02-14T23:44:58.468Z,29.77
2018-02-14T23:47:27.179Z,30.90
2018-02-14T23:49:55.205Z,32.23
2018-02-14T23:52:24.668Z,32.47
2018-02-14T23:54:53.552Z,31.10
2018-02-14T23:57:21.724Z,31.40
2018-02-14T23:59:50.040Z,30.90
